sensor_id;sensor_type;location;lat;lon;timestamp;pressure;altitude;pressure_sealevel;temperature;humidity
43312;BME280;30041;48.300;16.352;2023-11-21T00:00:39;99261.06;;;22.16;nan
43312;BME280;30041;48.300;16.352;2023-11-21T00:03:04;99257.00;;;22.13;nan
43312;BME280;30041;48.300;16.352;2023-11-21T00:05:30;99262.72;;;22.17;nan
43312;BME280;30041;48.300;16.352;2023-11-21T00:07:55;99252.41;;;22.14;nan
43312;BME280;30041;48.300;16.352;2023-11-21T00:10:20;99262.63;;;22.12;nan
43312;BME280;30041;48.300;16.352;2023-11-21T00:12:46;99251.28;;;22.10;nan
43312;BME280;30041;48.300;16.352;2023-11-21T00:15:11;99261.81;;;22.11;nan
43312;BME280;30041;48.300;16.352;2023-11-21T00:17:40;99263.22;;;22.14;nan
43312;BME280;30041;48.300;16.352;2023-11-21T00:20:06;99262.63;;;22.12;nan
43312;BME280;30041;48.300;16.352;2023-11-21T00:22:33;99260.69;;;22.07;nan
43312;BME280;30041;48.300;16.352;2023-11-21T00:24:59;99266.09;;;22.07;nan
43312;BME280;30041;48.300;16.352;2023-11-21T00:27:24;99268.53;;;22.09;nan
43312;BME280;30041;48.300;16.352;2023-11-21T00:29:50;99260.13;;;22.05;nan
43312;BME280;30041;48.300;16.352;2023-11-21T00:32:15;99253.09;;;22.04;nan
43312;BME280;30041;48.300;16.352;2023-11-21T00:34:41;99260.13;;;22.05;nan
43312;BME280;30041;48.300;16.352;2023-11-21T00:37:06;99257.69;;;22.04;nan
43312;BME280;30041;48.300;16.352;2023-11-21T00:39:32;99250.66;;;22.03;nan
43312;BME280;30041;48.300;16.352;2023-11-21T00:41:57;99256.84;;;22.03;nan
43312;BME280;30041;48.300;16.352;2023-11-21T00:44:22;99256.03;;;22.03;nan
43312;BME280;30041;48.300;16.352;2023-11-21T00:46:48;99252.31;;;22.04;nan
43312;BME280;30041;48.300;16.352;2023-11-21T00:49:13;99250.88;;;22.01;nan
43312;BME280;30041;48.300;16.352;2023-11-21T00:51:38;99255.72;;;21.99;nan
43312;BME280;30041;48.300;16.352;2023-11-21T00:54:04;99259.50;;;21.98;nan
43312;BME280;30041;48.300;16.352;2023-11-21T00:56:29;99248.47;;;22.00;nan
43312;BME280;30041;48.300;16.352;2023-11-21T00:58:55;99251.41;;;21.98;nan
43312;BME280;30041;48.300;16.352;2023-11-21T01:01:21;99247.09;;;21.97;nan
43312;BME280;30041;48.300;16.352;2023-11-21T01:03:46;99250.31;;;21.99;nan
43312;BME280;30041;48.300;16.352;2023-11-21T01:06:12;99253.28;;;21.97;nan
43312;BME280;30041;48.300;16.352;2023-11-21T01:08:37;99258.94;;;21.96;nan
43312;BME280;30041;48.300;16.352;2023-11-21T01:11:03;99258.13;;;21.95;nan
43312;BME280;30041;48.300;16.352;2023-11-21T01:13:29;99251.06;;;21.94;nan
43312;BME280;30041;48.300;16.352;2023-11-21T01:15:55;99253.47;;;21.91;nan
43312;BME280;30041;48.300;16.352;2023-11-21T01:18:20;99247.00;;;21.92;nan
43312;BME280;30041;48.300;16.352;2023-11-21T01:20:45;99245.94;;;21.93;nan
43312;BME280;30041;48.300;16.352;2023-11-21T01:23:11;99231.91;;;21.91;nan
43312;BME280;30041;48.300;16.352;2023-11-21T01:25:36;99236.47;;;21.90;nan
43312;BME280;30041;48.300;16.352;2023-11-21T01:28:01;99247.81;;;21.92;nan
43312;BME280;30041;48.300;16.352;2023-11-21T01:30:27;99236.22;;;21.92;nan
43312;BME280;30041;48.300;16.352;2023-11-21T01:32:52;99231.63;;;21.92;nan
43312;BME280;30041;48.300;16.352;2023-11-21T01:35:18;99219.44;;;21.90;nan
43312;BME280;30041;48.300;16.352;2023-11-21T01:37:43;99224.03;;;21.89;nan
43312;BME280;30041;48.300;16.352;2023-11-21T01:40:09;99226.97;;;21.88;nan
43312;BME280;30041;48.300;16.352;2023-11-21T01:42:34;99223.75;;;21.86;nan
43312;BME280;30041;48.300;16.352;2023-11-21T01:45:00;99228.06;;;21.87;nan
43312;BME280;30041;48.300;16.352;2023-11-21T01:47:25;99237.22;;;21.86;nan
43312;BME280;30041;48.300;16.352;2023-11-21T01:49:51;99231.25;;;21.84;nan
43312;BME280;30041;48.300;16.352;2023-11-21T01:52:16;99234.53;;;21.86;nan
43312;BME280;30041;48.300;16.352;2023-11-21T01:54:42;99232.06;;;21.84;nan
43312;BME280;30041;48.300;16.352;2023-11-21T01:57:07;99226.13;;;21.82;nan
43312;BME280;30041;48.300;16.352;2023-11-21T01:59:37;99237.72;;;21.83;nan
43312;BME280;30041;48.300;16.352;2023-11-21T02:02:04;99244.19;;;21.82;nan
43312;BME280;30041;48.300;16.352;2023-11-21T02:04:29;99238.78;;;21.82;nan
43312;BME280;30041;48.300;16.352;2023-11-21T02:06:55;99229.31;;;21.79;nan
43312;BME280;30041;48.300;16.352;2023-11-21T02:09:29;99220.97;;;21.81;nan
43312;BME280;30041;48.300;16.352;2023-11-21T02:11:55;99213.38;;;21.77;nan
43312;BME280;30041;48.300;16.352;2023-11-21T02:14:21;99223.09;;;21.79;nan
43312;BME280;30041;48.300;16.352;2023-11-21T02:16:48;99218.78;;;21.77;nan
43312;BME280;30041;48.300;16.352;2023-11-21T02:19:17;99217.69;;;21.79;nan
43312;BME280;30041;48.300;16.352;2023-11-21T02:21:43;99220.38;;;21.79;nan
43312;BME280;30041;48.300;16.352;2023-11-21T02:24:09;99219.81;;;21.76;nan
43312;BME280;30041;48.300;16.352;2023-11-21T02:26:34;99225.22;;;21.76;nan
43312;BME280;30041;48.300;16.352;2023-11-21T02:28:59;99233.56;;;21.75;nan
43312;BME280;30041;48.300;16.352;2023-11-21T02:31:25;99207.66;;;21.74;nan
43312;BME280;30041;48.300;16.352;2023-11-21T02:33:50;99215.50;;;21.75;nan
43312;BME280;30041;48.300;16.352;2023-11-21T02:36:16;99212.81;;;21.75;nan
43312;BME280;30041;48.300;16.352;2023-11-21T02:38:41;99203.56;;;21.71;nan
43312;BME280;30041;48.300;16.352;2023-11-21T02:41:06;99210.63;;;21.72;nan
43312;BME280;30041;48.300;16.352;2023-11-21T02:43:32;99210.06;;;21.70;nan
43312;BME280;30041;48.300;16.352;2023-11-21T02:45:57;99208.72;;;21.73;nan
43312;BME280;30041;48.300;16.352;2023-11-21T02:48:23;99217.31;;;21.70;nan
43312;BME280;30041;48.300;16.352;2023-11-21T02:50:48;99211.66;;;21.71;nan
43312;BME280;30041;48.300;16.352;2023-11-21T02:53:14;99215.16;;;21.72;nan
43312;BME280;30041;48.300;16.352;2023-11-21T02:55:39;99221.06;;;21.69;nan
43312;BME280;30041;48.300;16.352;2023-11-21T02:58:05;99208.63;;;21.68;nan
43312;BME280;30041;48.300;16.352;2023-11-21T03:00:30;99215.13;;;21.67;nan
43312;BME280;30041;48.300;16.352;2023-11-21T03:02:56;99213.22;;;21.67;nan
43312;BME280;30041;48.300;16.352;2023-11-21T03:05:21;99217.81;;;21.67;nan
43312;BME280;30041;48.300;16.352;2023-11-21T03:07:47;99219.44;;;21.68;nan
43312;BME280;30041;48.300;16.352;2023-11-21T03:10:12;99218.88;;;21.66;nan
43312;BME280;30041;48.300;16.352;2023-11-21T03:12:38;99214.31;;;21.66;nan
43312;BME280;30041;48.300;16.352;2023-11-21T03:15:08;99218.06;;;21.65;nan
43312;BME280;30041;48.300;16.352;2023-11-21T03:17:33;99214.53;;;21.65;nan
43312;BME280;30041;48.300;16.352;2023-11-21T03:19:59;99200.50;;;21.63;nan
43312;BME280;30041;48.300;16.352;2023-11-21T03:22:24;99202.38;;;21.62;nan
43312;BME280;30041;48.300;16.352;2023-11-21T03:24:50;99211.50;;;21.61;nan
43312;BME280;30041;48.300;16.352;2023-11-21T03:27:15;99212.59;;;21.60;nan
43312;BME280;30041;48.300;16.352;2023-11-21T03:29:41;99206.69;;;21.63;nan
43312;BME280;30041;48.300;16.352;2023-11-21T03:32:07;99216.66;;;21.63;nan
43312;BME280;30041;48.300;16.352;2023-11-21T03:34:35;99204.25;;;21.62;nan
43312;BME280;30041;48.300;16.352;2023-11-21T03:37:01;99212.59;;;21.60;nan
43312;BME280;30041;48.300;16.352;2023-11-21T03:39:26;99204.75;;;21.59;nan
43312;BME280;30041;48.300;16.352;2023-11-21T03:41:52;99207.72;;;21.57;nan
43312;BME280;30041;48.300;16.352;2023-11-21T03:44:17;99205.81;;;21.58;nan
43312;BME280;30041;48.300;16.352;2023-11-21T03:46:43;99205.25;;;21.55;nan
43312;BME280;30041;48.300;16.352;2023-11-21T03:49:08;99202.78;;;21.54;nan
43312;BME280;30041;48.300;16.352;2023-11-21T03:51:34;99206.56;;;21.53;nan
43312;BME280;30041;48.300;16.352;2023-11-21T03:53:59;99203.63;;;21.54;nan
43312;BME280;30041;48.300;16.352;2023-11-21T03:56:24;99202.78;;;21.54;nan
43312;BME280;30041;48.300;16.352;2023-11-21T03:58:50;99215.22;;;21.55;nan
43312;BME280;30041;48.300;16.352;2023-11-21T04:01:22;99210.88;;;21.54;nan
43312;BME280;30041;48.300;16.352;2023-11-21T04:03:50;99212.53;;;21.55;nan
43312;BME280;30041;48.300;16.352;2023-11-21T04:06:17;99216.53;;;21.52;nan
43312;BME280;30041;48.300;16.352;2023-11-21T04:08:45;99216.28;;;21.54;nan
43312;BME280;30041;48.300;16.352;2023-11-21T04:11:11;99220.06;;;21.53;nan
43312;BME280;30041;48.300;16.352;2023-11-21T04:13:38;99221.44;;;21.55;nan
43312;BME280;30041;48.300;16.352;2023-11-21T04:16:05;99221.66;;;21.54;nan
43312;BME280;30041;48.300;16.352;2023-11-21T04:18:31;99211.22;;;21.58;nan
43312;BME280;30041;48.300;16.352;2023-11-21T04:20:56;99213.66;;;21.59;nan
43312;BME280;30041;48.300;16.352;2023-11-21T04:23:22;99213.41;;;21.61;nan
43312;BME280;30041;48.300;16.352;2023-11-21T04:25:47;99208.56;;;21.63;nan
43312;BME280;30041;48.300;16.352;2023-11-21T04:28:13;99205.66;;;21.64;nan
43312;BME280;30041;48.300;16.352;2023-11-21T04:30:38;99208.09;;;21.66;nan
43312;BME280;30041;48.300;16.352;2023-11-21T04:33:06;99207.59;;;21.69;nan
43312;BME280;30041;48.300;16.352;2023-11-21T04:35:32;99199.75;;;21.67;nan
43312;BME280;30041;48.300;16.352;2023-11-21T04:37:57;99204.09;;;21.68;nan
43312;BME280;30041;48.300;16.352;2023-11-21T04:40:23;99198.41;;;21.70;nan
43312;BME280;30041;48.300;16.352;2023-11-21T04:42:50;99201.13;;;21.70;nan
43312;BME280;30041;48.300;16.352;2023-11-21T04:45:16;99194.16;;;21.74;nan
43312;BME280;30041;48.300;16.352;2023-11-21T04:47:41;99191.75;;;21.72;nan
43312;BME280;30041;48.300;16.352;2023-11-21T04:50:09;99188.78;;;21.74;nan
43312;BME280;30041;48.300;16.352;2023-11-21T04:52:35;99189.03;;;21.72;nan
43312;BME280;30041;48.300;16.352;2023-11-21T04:55:00;99189.03;;;21.72;nan
43312;BME280;30041;48.300;16.352;2023-11-21T04:57:28;99197.94;;;21.73;nan
43312;BME280;30041;48.300;16.352;2023-11-21T04:59:55;99198.25;;;21.76;nan
43312;BME280;30041;48.300;16.352;2023-11-21T05:02:21;99198.81;;;21.79;nan
43312;BME280;30041;48.300;16.352;2023-11-21T05:04:47;99201.50;;;21.79;nan
43312;BME280;30041;48.300;16.352;2023-11-21T05:07:12;99200.69;;;21.78;nan
43312;BME280;30041;48.300;16.352;2023-11-21T05:09:41;99195.06;;;21.80;nan
43312;BME280;30041;48.300;16.352;2023-11-21T05:12:07;99204.47;;;21.77;nan
43312;BME280;30041;48.300;16.352;2023-11-21T05:14:32;99205.53;;;21.76;nan
43312;BME280;30041;48.300;16.352;2023-11-21T05:16:58;99202.00;;;21.75;nan
43312;BME280;30041;48.300;16.352;2023-11-21T05:19:23;99199.88;;;21.77;nan
43312;BME280;30041;48.300;16.352;2023-11-21T05:21:49;99196.63;;;21.75;nan
43312;BME280;30041;48.300;16.352;2023-11-21T05:24:14;99203.63;;;21.76;nan
43312;BME280;30041;48.300;16.352;2023-11-21T05:26:40;99207.16;;;21.77;nan
43312;BME280;30041;48.300;16.352;2023-11-21T05:29:05;99210.78;;;21.88;nan
43312;BME280;30041;48.300;16.352;2023-11-21T05:31:30;99213.63;;;21.98;nan
43312;BME280;30041;48.300;16.352;2023-11-21T05:33:56;99213.88;;;21.96;nan
43312;BME280;30041;48.300;16.352;2023-11-21T05:36:21;99219.25;;;21.96;nan
43312;BME280;30041;48.300;16.352;2023-11-21T05:38:46;99223.53;;;21.92;nan
43312;BME280;30041;48.300;16.352;2023-11-21T05:41:12;99228.13;;;21.92;nan
43312;BME280;30041;48.300;16.352;2023-11-21T05:43:37;99224.84;;;21.90;nan
43312;BME280;30041;48.300;16.352;2023-11-21T05:46:03;99235.91;;;21.88;nan
43312;BME280;30041;48.300;16.352;2023-11-21T05:48:28;99233.50;;;21.92;nan
43312;BME280;30041;48.300;16.352;2023-11-21T05:50:53;99239.19;;;21.90;nan
43312;BME280;30041;48.300;16.352;2023-11-21T05:53:19;99235.16;;;21.93;nan
43312;BME280;30041;48.300;16.352;2023-11-21T05:55:44;99235.16;;;21.93;nan
43312;BME280;30041;48.300;16.352;2023-11-21T05:58:10;99254.09;;;21.98;nan
43312;BME280;30041;48.300;16.352;2023-11-21T06:00:36;99256.63;;;22.05;nan
43312;BME280;30041;48.300;16.352;2023-11-21T06:03:01;99251.94;;;22.17;nan
43312;BME280;30041;48.300;16.352;2023-11-21T06:05:27;99253.16;;;22.26;nan
43312;BME280;30041;48.300;16.352;2023-11-21T06:07:53;99258.59;;;22.31;nan
43312;BME280;30041;48.300;16.352;2023-11-21T06:10:22;99254.31;;;22.35;nan
43312;BME280;30041;48.300;16.352;2023-11-21T06:12:47;99260.03;;;22.39;nan
43312;BME280;30041;48.300;16.352;2023-11-21T06:15:13;99256.03;;;22.42;nan
43312;BME280;30041;48.300;16.352;2023-11-21T06:17:40;99253.06;;;22.43;nan
43312;BME280;30041;48.300;16.352;2023-11-21T06:20:06;99263.38;;;22.46;nan
43312;BME280;30041;48.300;16.352;2023-11-21T06:22:32;99261.22;;;22.48;nan
43312;BME280;30041;48.300;16.352;2023-11-21T06:24:57;99260.72;;;22.51;nan
43312;BME280;30041;48.300;16.352;2023-11-21T06:27:23;99269.38;;;22.53;nan
43312;BME280;30041;48.300;16.352;2023-11-21T06:29:48;99275.91;;;22.57;nan
43312;BME280;30041;48.300;16.352;2023-11-21T06:32:13;99274.81;;;22.58;nan
43312;BME280;30041;48.300;16.352;2023-11-21T06:34:39;99272.13;;;22.58;nan
43312;BME280;30041;48.300;16.352;2023-11-21T06:37:04;99277.84;;;22.62;nan
43312;BME280;30041;48.300;16.352;2023-11-21T06:39:32;99281.34;;;22.63;nan
43312;BME280;30041;48.300;16.352;2023-11-21T06:41:57;99278.41;;;22.64;nan
43312;BME280;30041;48.300;16.352;2023-11-21T06:44:23;99285.19;;;22.67;nan
43312;BME280;30041;48.300;16.352;2023-11-21T06:46:48;99291.16;;;22.69;nan
43312;BME280;30041;48.300;16.352;2023-11-21T06:49:13;99298.16;;;22.70;nan
43312;BME280;30041;48.300;16.352;2023-11-21T06:51:39;99296.03;;;22.72;nan
43312;BME280;30041;48.300;16.352;2023-11-21T06:54:05;99294.16;;;22.72;nan
43312;BME280;30041;48.300;16.352;2023-11-21T06:56:31;99288.44;;;22.69;nan
43312;BME280;30041;48.300;16.352;2023-11-21T06:58:56;99300.41;;;22.51;nan
43312;BME280;30041;48.300;16.352;2023-11-21T07:01:22;99298.28;;;22.53;nan
43312;BME280;30041;48.300;16.352;2023-11-21T07:03:47;99296.53;;;22.42;nan
43312;BME280;30041;48.300;16.352;2023-11-21T07:06:15;99289.66;;;22.34;nan
43312;BME280;30041;48.300;16.352;2023-11-21T07:08:42;99301.63;;;22.21;nan
43312;BME280;30041;48.300;16.352;2023-11-21T07:11:08;99302.94;;;22.18;nan
43312;BME280;30041;48.300;16.352;2023-11-21T07:13:33;99306.22;;;22.21;nan
43312;BME280;30041;48.300;16.352;2023-11-21T07:15:59;99297.94;;;22.27;nan
43312;BME280;30041;48.300;16.352;2023-11-21T07:18:25;99293.38;;;22.28;nan
43312;BME280;30041;48.300;16.352;2023-11-21T07:20:53;99306.06;;;22.27;nan
43312;BME280;30041;48.300;16.352;2023-11-21T07:23:18;99305.25;;;22.27;nan
43312;BME280;30041;48.300;16.352;2023-11-21T07:25:44;99307.88;;;22.22;nan
43312;BME280;30041;48.300;16.352;2023-11-21T07:28:11;99314.22;;;22.32;nan
43312;BME280;30041;48.300;16.352;2023-11-21T07:30:37;99321.00;;;22.35;nan
43312;BME280;30041;48.300;16.352;2023-11-21T07:33:02;99320.81;;;22.42;nan
43312;BME280;30041;48.300;16.352;2023-11-21T07:35:31;99320.50;;;22.21;nan
43312;BME280;30041;48.300;16.352;2023-11-21T07:37:56;99324.97;;;22.10;nan
43312;BME280;30041;48.300;16.352;2023-11-21T07:40:21;99330.41;;;21.93;nan
43312;BME280;30041;48.300;16.352;2023-11-21T07:42:47;99336.38;;;21.95;nan
43312;BME280;30041;48.300;16.352;2023-11-21T07:45:12;99332.03;;;21.94;nan
43312;BME280;30041;48.300;16.352;2023-11-21T07:47:38;99340.44;;;21.98;nan
43312;BME280;30041;48.300;16.352;2023-11-21T07:50:04;99332.75;;;21.90;nan
43312;BME280;30041;48.300;16.352;2023-11-21T07:52:29;99326.25;;;21.86;nan
43312;BME280;30041;48.300;16.352;2023-11-21T07:54:55;99324.28;;;21.81;nan
43312;BME280;30041;48.300;16.352;2023-11-21T07:57:20;99324.94;;;21.88;nan
43312;BME280;30041;48.300;16.352;2023-11-21T07:59:45;99329.25;;;21.89;nan
43312;BME280;30041;48.300;16.352;2023-11-21T08:02:11;99320.25;;;22.01;nan
43312;BME280;30041;48.300;16.352;2023-11-21T08:04:36;99327.84;;;22.04;nan
43312;BME280;30041;48.300;16.352;2023-11-21T08:07:02;99331.84;;;22.01;nan
43312;BME280;30041;48.300;16.352;2023-11-21T08:09:27;99333.78;;;22.06;nan
43312;BME280;30041;48.300;16.352;2023-11-21T08:11:53;99329.31;;;22.11;nan
43312;BME280;30041;48.300;16.352;2023-11-21T08:14:18;99332.31;;;22.15;nan
43312;BME280;30041;48.300;16.352;2023-11-21T08:16:44;99336.97;;;22.20;nan
43312;BME280;30041;48.300;16.352;2023-11-21T08:19:10;99342.22;;;22.26;nan
43312;BME280;30041;48.300;16.352;2023-11-21T08:21:35;99336.25;;;22.24;nan
43312;BME280;30041;48.300;16.352;2023-11-21T08:24:01;99343.38;;;22.13;nan
43312;BME280;30041;48.300;16.352;2023-11-21T08:26:26;99339.53;;;22.09;nan
43312;BME280;30041;48.300;16.352;2023-11-21T08:28:51;99340.09;;;22.11;nan
43312;BME280;30041;48.300;16.352;2023-11-21T08:31:17;99344.13;;;22.09;nan
43312;BME280;30041;48.300;16.352;2023-11-21T08:33:42;99350.09;;;22.11;nan
43312;BME280;30041;48.300;16.352;2023-11-21T08:36:08;99347.13;;;22.12;nan
43312;BME280;30041;48.300;16.352;2023-11-21T08:38:34;99355.88;;;22.20;nan
43312;BME280;30041;48.300;16.352;2023-11-21T08:41:02;99347.63;;;22.26;nan
43312;BME280;30041;48.300;16.352;2023-11-21T08:43:28;99348.91;;;22.24;nan
43312;BME280;30041;48.300;16.352;2023-11-21T08:45:53;99354.78;;;22.21;nan
43312;BME280;30041;48.300;16.352;2023-11-21T08:48:18;99357.84;;;22.24;nan
43312;BME280;30041;48.300;16.352;2023-11-21T08:50:44;99354.97;;;22.31;nan
43312;BME280;30041;48.300;16.352;2023-11-21T08:53:11;99351.81;;;22.39;nan
43312;BME280;30041;48.300;16.352;2023-11-21T08:55:37;99352.34;;;22.36;nan
43312;BME280;30041;48.300;16.352;2023-11-21T08:58:02;99361.75;;;22.33;nan
43312;BME280;30041;48.300;16.352;2023-11-21T09:00:28;99358.25;;;22.33;nan
43312;BME280;30041;48.300;16.352;2023-11-21T09:02:53;99360.09;;;22.32;nan
43312;BME280;30041;48.300;16.352;2023-11-21T09:05:19;99360.38;;;22.31;nan
43312;BME280;30041;48.300;16.352;2023-11-21T09:07:53;99354.41;;;22.29;nan
43312;BME280;30041;48.300;16.352;2023-11-21T09:10:18;99350.38;;;22.31;nan
43312;BME280;30041;48.300;16.352;2023-11-21T09:12:44;99350.94;;;22.33;nan
43312;BME280;30041;48.300;16.352;2023-11-21T09:15:09;99347.69;;;22.31;nan
43312;BME280;30041;48.300;16.352;2023-11-21T09:17:35;99341.53;;;22.36;nan
43312;BME280;30041;48.300;16.352;2023-11-21T09:20:01;99334.25;;;22.36;nan
43312;BME280;30041;48.300;16.352;2023-11-21T09:22:26;99331.53;;;22.36;nan
43312;BME280;30041;48.300;16.352;2023-11-21T09:24:52;99317.00;;;22.37;nan
43312;BME280;30041;48.300;16.352;2023-11-21T09:27:17;99313.44;;;22.37;nan
43312;BME280;30041;48.300;16.352;2023-11-21T09:29:43;99310.75;;;22.37;nan
43312;BME280;30041;48.300;16.352;2023-11-21T09:32:08;99315.09;;;22.38;nan
43312;BME280;30041;48.300;16.352;2023-11-21T09:34:34;99314.03;;;22.39;nan
43312;BME280;30041;48.300;16.352;2023-11-21T09:37:00;99317.22;;;22.36;nan
43312;BME280;30041;48.300;16.352;2023-11-21T09:39:25;99324.53;;;22.35;nan
43312;BME280;30041;48.300;16.352;2023-11-21T09:41:52;99318.31;;;22.35;nan
43312;BME280;30041;48.300;16.352;2023-11-21T09:44:18;99313.03;;;22.45;nan
43312;BME280;30041;48.300;16.352;2023-11-21T09:46:47;99317.47;;;22.56;nan
43312;BME280;30041;48.300;16.352;2023-11-21T09:49:13;99319.00;;;22.47;nan
43312;BME280;30041;48.300;16.352;2023-11-21T09:51:42;99311.69;;;22.48;nan
43312;BME280;30041;48.300;16.352;2023-11-21T09:54:10;99311.50;;;22.54;nan
43312;BME280;30041;48.300;16.352;2023-11-21T09:56:38;99318.41;;;22.45;nan
43312;BME280;30041;48.300;16.352;2023-11-21T09:59:03;99314.72;;;22.51;nan
43312;BME280;30041;48.300;16.352;2023-11-21T10:01:31;99301.72;;;22.48;nan
43312;BME280;30041;48.300;16.352;2023-11-21T10:03:57;99309.88;;;22.53;nan
43312;BME280;30041;48.300;16.352;2023-11-21T10:06:25;99298.47;;;22.46;nan
43312;BME280;30041;48.300;16.352;2023-11-21T10:08:51;99306.47;;;22.41;nan
43312;BME280;30041;48.300;16.352;2023-11-21T10:11:17;99293.75;;;22.36;nan
43312;BME280;30041;48.300;16.352;2023-11-21T10:13:44;99300.53;;;22.39;nan
43312;BME280;30041;48.300;16.352;2023-11-21T10:16:14;99306.19;;;22.37;nan
43312;BME280;30041;48.300;16.352;2023-11-21T10:18:41;99298.34;;;22.36;nan
43312;BME280;30041;48.300;16.352;2023-11-21T10:21:07;99299.41;;;22.35;nan
43312;BME280;30041;48.300;16.352;2023-11-21T10:23:33;99290.75;;;22.33;nan
43312;BME280;30041;48.300;16.352;2023-11-21T10:26:02;99291.00;;;22.31;nan
43312;BME280;30041;48.300;16.352;2023-11-21T10:28:29;99296.97;;;22.33;nan
43312;BME280;30041;48.300;16.352;2023-11-21T10:30:55;99292.03;;;22.30;nan
43312;BME280;30041;48.300;16.352;2023-11-21T10:33:27;99294.00;;;22.35;nan
43312;BME280;30041;48.300;16.352;2023-11-21T10:35:53;99292.94;;;22.36;nan
43312;BME280;30041;48.300;16.352;2023-11-21T10:38:18;99297.06;;;22.44;nan
43312;BME280;30041;48.300;16.352;2023-11-21T10:40:44;99301.50;;;22.55;nan
43312;BME280;30041;48.300;16.352;2023-11-21T10:43:10;99295.56;;;22.53;nan
43312;BME280;30041;48.300;16.352;2023-11-21T10:45:39;99296.34;;;22.48;nan
43312;BME280;30041;48.300;16.352;2023-11-21T10:48:06;99310.34;;;22.06;nan
43312;BME280;30041;48.300;16.352;2023-11-21T10:50:33;99308.34;;;21.80;nan
43312;BME280;30041;48.300;16.352;2023-11-21T10:52:58;99308.41;;;21.85;nan
43312;BME280;30041;48.300;16.352;2023-11-21T10:55:24;99308.81;;;21.93;nan
43312;BME280;30041;48.300;16.352;2023-11-21T10:57:52;99302.44;;;22.00;nan
43312;BME280;30041;48.300;16.352;2023-11-21T11:00:19;99306.50;;;22.02;nan
43312;BME280;30041;48.300;16.352;2023-11-21T11:02:45;99302.81;;;22.08;nan
43312;BME280;30041;48.300;16.352;2023-11-21T11:05:12;99301.16;;;22.07;nan
43312;BME280;30041;48.300;16.352;2023-11-21T11:07:39;99306.31;;;22.09;nan
43312;BME280;30041;48.300;16.352;2023-11-21T11:10:09;99300.69;;;22.10;nan
43312;BME280;30041;48.300;16.352;2023-11-21T11:12:35;99304.78;;;22.13;nan
43312;BME280;30041;48.300;16.352;2023-11-21T11:15:01;99303.13;;;22.12;nan
43312;BME280;30041;48.300;16.352;2023-11-21T11:17:27;99294.47;;;22.10;nan
43312;BME280;30041;48.300;16.352;2023-11-21T11:19:52;99299.38;;;22.13;nan
43312;BME280;30041;48.300;16.352;2023-11-21T11:22:32;99298.28;;;22.14;nan
43312;BME280;30041;48.300;16.352;2023-11-21T11:28:20;99295.03;;;22.12;nan
43312;BME280;30041;48.300;16.352;2023-11-21T11:33:43;99284.78;;;22.14;nan
43312;BME280;30041;48.300;16.352;2023-11-21T11:36:20;99279.63;;;22.12;nan
43312;BME280;30041;48.300;16.352;2023-11-21T11:38:47;99280.22;;;22.14;nan
43312;BME280;30041;48.300;16.352;2023-11-21T11:41:12;99284.00;;;22.13;nan
43312;BME280;30041;48.300;16.352;2023-11-21T11:43:38;99285.59;;;22.14;nan
43312;BME280;30041;48.300;16.352;2023-11-21T11:46:03;99290.19;;;22.14;nan
43312;BME280;30041;48.300;16.352;2023-11-21T11:48:29;99287.25;;;22.15;nan
43312;BME280;30041;48.300;16.352;2023-11-21T11:51:04;99290.75;;;22.16;nan
43312;BME280;30041;48.300;16.352;2023-11-21T11:53:35;99291.00;;;22.14;nan
43312;BME280;30041;48.300;16.352;2023-11-21T11:58:51;99293.97;;;22.13;nan
43312;BME280;30041;48.300;16.352;2023-11-21T12:01:18;99297.47;;;22.13;nan
43312;BME280;30041;48.300;16.352;2023-11-21T12:03:44;99287.72;;;22.12;nan
43312;BME280;30041;48.300;16.352;2023-11-21T12:06:10;99289.38;;;22.13;nan
43312;BME280;30041;48.300;16.352;2023-11-21T12:08:36;99295.34;;;22.15;nan
43312;BME280;30041;48.300;16.352;2023-11-21T12:11:01;99293.97;;;22.13;nan
43312;BME280;30041;48.300;16.352;2023-11-21T12:13:28;99307.06;;;22.04;nan
43312;BME280;30041;48.300;16.352;2023-11-21T12:15:53;99301.16;;;22.07;nan
43312;BME280;30041;48.300;16.352;2023-11-21T12:18:19;99306.63;;;22.12;nan
43312;BME280;30041;48.300;16.352;2023-11-21T12:20:44;99305.56;;;22.13;nan
43312;BME280;30041;48.300;16.352;2023-11-21T12:23:10;99306.38;;;22.14;nan
43312;BME280;30041;48.300;16.352;2023-11-21T12:25:35;99302.31;;;22.11;nan
43312;BME280;30041;48.300;16.352;2023-11-21T12:28:01;99299.38;;;22.13;nan
43312;BME280;30041;48.300;16.352;2023-11-21T12:30:29;99300.50;;;22.17;nan
43312;BME280;30041;48.300;16.352;2023-11-21T12:32:55;99294.84;;;22.18;nan
43312;BME280;30041;48.300;16.352;2023-11-21T12:35:25;99304.09;;;22.23;nan
43312;BME280;30041;48.300;16.352;2023-11-21T12:37:52;99293.31;;;22.23;nan
43312;BME280;30041;48.300;16.352;2023-11-21T12:40:18;99290.81;;;22.21;nan
43312;BME280;30041;48.300;16.352;2023-11-21T12:42:48;99283.31;;;22.23;nan
43312;BME280;30041;48.300;16.352;2023-11-21T12:48:01;99282.28;;;22.24;nan
43312;BME280;30041;48.300;16.352;2023-11-21T12:50:29;99296.81;;;22.23;nan
43312;BME280;30041;48.300;16.352;2023-11-21T12:55:31;99294.94;;;22.24;nan
43312;BME280;30041;48.300;16.352;2023-11-21T12:57:56;99304.09;;;22.23;nan
43312;BME280;30041;48.300;16.352;2023-11-21T13:00:31;99300.31;;;22.24;nan
43312;BME280;30041;48.300;16.352;2023-11-21T13:02:58;99302.50;;;22.22;nan
43312;BME280;30041;48.300;16.352;2023-11-21T13:05:28;99299.19;;;22.20;nan
43312;BME280;30041;48.300;16.352;2023-11-21T13:08:04;99299.19;;;22.20;nan
43312;BME280;30041;48.300;16.352;2023-11-21T13:10:31;99302.69;;;22.20;nan
43312;BME280;30041;48.300;16.352;2023-11-21T13:13:00;99290.38;;;22.24;nan
43312;BME280;30041;48.300;16.352;2023-11-21T13:15:28;99293.78;;;22.20;nan
43312;BME280;30041;48.300;16.352;2023-11-21T13:17:54;99291.09;;;22.20;nan